Aérodrome :
LOGIN :

S'inscrire | Disclaimer

   EN    FR    IT 

 










Légende :    VFR   VFR Marginal   IFR   IFR Intensif   IFR Très Intensif
Visi : 
Plafond : 
>= 8 km
>= 3000ft
5 à 8 km
1000 à 3000 ft
1500m à 5 km
500 à 1000 ft
800 à 1500m
200 à 500 ft
< 800m
< 200 ft
Symboles :   Orages  Brouillard  Fortes neiges  Fortes précipitations  Vent > 20 kt
SIGMETs :   Divers  Orages  Givrage  Turbulence  Onde Orograph.  Cendres Volcan.






- Altitude de l'aérodrome : 319 ft


EIME - Casement Air Base

DERNIER METAR :
  • 261700Z 24012KT 9999 FEW020 SCT036 BKN250 05/01 Q1005

METARs EXPIRÉS :
  • 261630Z 24011KT 9999 FEW020 SCT034 BKN250 05/00 Q1005
  • 261600Z 26014KT 9999 FEW020 SCT030 BKN250 06/M01 Q1005
  • 261530Z 24013KT 9999 FEW020 BKN040 06/M01 Q1005
  • 261500Z 25015KT 9999 FEW020 SCT040 06/M01 Q1006
  • 261430Z 25016KT 9999 FEW020 SCT035 06/M01 Q1006

TAF TAF EIME
Valide du 26 à 15h jusqu'au 27 à 00h UTC


261400Z 2615/2624 25013KT 9999 SCT018 BKN025
PROB30
TEMPO 2615/2618 -SHRASN SCT020CB
BECMG 2617/2619 22010KT
TEMPO 2622/2624 4000 -RASN BKN010



MET'MAP, la Météo Aéronautique d'un coup d'oeil ! - Copyright ORBIFLY Décembre 2007 - Disclaimer

ORBIFLY MET'MAP TEAM :

Programmation & Développement : Alexandra Zaïnal
Sur une idée originale de : Baudouin d'Aumeries
Assistance à la programmation : Marc-Olivier Méhu
Soutien technique & logistique : Manuel Goepfert

Contact : metmap@orbifly.com




SOURCES & CREDITS :

   NOAA